createdAt,value
2022-11-24T00:02:56.950Z,23.55
2022-11-24T00:07:59.118Z,21.33
2022-11-24T00:13:02.572Z,20.92
2022-11-24T00:18:04.617Z,23.52
2022-11-24T00:23:08.014Z,18.90
2022-11-24T00:28:11.390Z,20.85
2022-11-24T00:33:13.384Z,22.05
2022-11-24T00:38:15.368Z,20.50
2022-11-24T00:43:19.101Z,9.35
2022-11-24T00:48:21.394Z,15.75
2022-11-24T00:53:23.410Z,14.13
2022-11-24T00:58:26.966Z,22.55
2022-11-24T01:03:29.015Z,21.88
2022-11-24T01:08:31.158Z,15.23
2022-11-24T01:13:34.469Z,14.27
2022-11-24T01:18:36.511Z,14.63
2022-11-24T01:23:38.685Z,11.10
2022-11-24T01:28:46.997Z,14.05
2022-11-24T01:33:49.988Z,20.00
2022-11-24T01:38:52.192Z,19.35
2022-11-24T01:43:56.411Z,21.33
2022-11-24T01:54:09.204Z,15.35
2022-11-24T01:59:15.182Z,21.05
2022-11-24T02:04:23.863Z,14.52
2022-11-24T02:09:31.187Z,14.85
2022-11-24T02:14:37.901Z,16.70
2022-11-24T02:19:48.980Z,27.50
2022-11-24T02:24:56.229Z,15.07
2022-11-24T02:29:59.640Z,13.20
2022-11-24T02:35:02.470Z,16.92
2022-11-24T02:40:05.572Z,21.60
2022-11-24T02:45:11.364Z,15.18
2022-11-24T02:50:13.365Z,17.48
2022-11-24T02:55:15.546Z,9.68
2022-11-24T03:00:19.482Z,14.30
2022-11-24T03:05:21.509Z,11.77
2022-11-24T03:10:24.475Z,15.27
2022-11-24T03:15:27.915Z,14.77
2022-11-24T03:20:30.140Z,14.27
2022-11-24T03:25:32.184Z,14.93
2022-11-24T03:30:35.594Z,13.85
2022-11-24T03:35:37.590Z,13.07
2022-11-24T03:40:39.652Z,13.52
2022-11-24T03:45:46.521Z,16.08
2022-11-24T03:50:54.025Z,16.23
2022-11-24T03:55:56.799Z,17.15
2022-11-24T04:01:00.179Z,14.57
2022-11-24T04:06:02.257Z,17.73
2022-11-24T04:11:04.613Z,19.23
2022-11-24T04:16:09.079Z,16.88
2022-11-24T04:21:11.125Z,18.40
2022-11-24T04:26:13.806Z,16.30
2022-11-24T04:31:18.285Z,14.50
2022-11-24T04:36:20.479Z,14.57
2022-11-24T04:41:22.500Z,14.93
2022-11-24T04:46:25.865Z,17.08
2022-11-24T04:51:27.972Z,18.58
2022-11-24T04:56:30.004Z,16.55
2022-11-24T05:01:33.446Z,19.63
2022-11-24T05:06:39.057Z,18.75
2022-11-24T05:11:43.279Z,13.60
2022-11-24T05:16:46.560Z,17.45
2022-11-24T05:21:48.700Z,15.85
2022-11-24T05:26:51.124Z,11.52
2022-11-24T05:31:54.519Z,18.35
2022-11-24T05:37:02.714Z,16.65
2022-11-24T05:42:25.536Z,15.10
2022-11-24T05:47:28.835Z,14.48
2022-11-24T05:52:35.997Z,14.45
2022-11-24T05:57:39.026Z,16.65
2022-11-24T06:02:42.369Z,14.27
2022-11-24T06:07:44.655Z,15.38
2022-11-24T06:12:47.536Z,12.98
2022-11-24T06:17:55.672Z,9.80
2022-11-24T06:22:57.829Z,15.35
2022-11-24T06:28:03.422Z,11.85
2022-11-24T06:33:06.703Z,12.95
2022-11-24T06:38:08.754Z,13.02
2022-11-24T06:43:10.746Z,12.57
2022-11-24T06:48:14.050Z,12.95
2022-11-24T06:53:16.017Z,13.40
2022-11-24T06:58:17.977Z,12.77
2022-11-24T07:03:21.660Z,37.10
2022-11-24T07:08:23.733Z,14.50
2022-11-24T07:13:25.672Z,15.00
2022-11-24T07:18:29.118Z,14.23
2022-11-24T07:23:31.187Z,17.52
2022-11-24T07:28:34.056Z,14.18
2022-11-24T07:33:37.782Z,14.95
2022-11-24T07:38:40.071Z,15.30
2022-11-24T07:43:42.232Z,14.70
2022-11-24T07:48:45.533Z,16.17
2022-11-24T07:53:47.594Z,15.32
2022-11-24T08:04:07.007Z,15.57
2022-11-24T08:09:09.045Z,14.98
2022-11-24T08:14:10.961Z,15.35
2022-11-24T08:19:14.278Z,18.58
2022-11-24T08:24:16.999Z,17.60
2022-11-24T08:29:18.976Z,21.90
2022-11-24T08:34:23.008Z,18.88
2022-11-24T08:39:24.877Z,15.85
2022-11-24T08:44:28.756Z,19.80
2022-11-24T08:49:32.134Z,20.92
2022-11-24T08:54:34.559Z,25.80
2022-11-24T08:59:36.914Z,14.48
2022-11-24T09:04:40.561Z,10.00
2022-11-24T09:09:42.555Z,16.75
2022-11-24T09:14:44.509Z,18.83
2022-11-24T09:19:48.091Z,17.67
2022-11-24T09:24:50.063Z,19.00
2022-11-24T09:29:52.212Z,20.83
2022-11-24T09:34:55.479Z,19.75
2022-11-24T09:39:57.383Z,22.05
2022-11-24T09:45:48.867Z,23.48
2022-11-24T09:50:49.058Z,23.30
2022-11-24T09:55:53.847Z,17.42
2022-11-24T10:00:57.705Z,24.38
2022-11-24T10:11:12.853Z,17.02
2022-11-24T10:16:26.867Z,19.08
2022-11-24T10:21:47.276Z,23.58
2022-11-24T10:26:54.148Z,17.63
2022-11-24T10:31:57.023Z,15.30
2022-11-24T10:37:06.560Z,20.13
2022-11-24T10:42:17.650Z,19.27
2022-11-24T10:47:22.676Z,17.80
2022-11-24T10:52:28.644Z,21.88
2022-11-24T10:57:33.157Z,18.52
2022-11-24T11:02:37.455Z,20.85
2022-11-24T11:07:41.059Z,21.23
2022-11-24T11:12:45.823Z,20.55
2022-11-24T11:17:50.398Z,19.55
2022-11-24T11:22:56.064Z,16.70
2022-11-24T11:28:26.586Z,16.15
2022-11-24T11:38:54.067Z,21.20
2022-11-24T11:44:09.554Z,24.15
2022-11-24T11:49:13.470Z,20.88
2022-11-24T11:54:30.242Z,24.05
2022-11-24T11:59:47.505Z,19.30
2022-11-24T12:04:53.016Z,19.50
2022-11-24T12:10:03.148Z,11.85
2022-11-24T12:15:14.727Z,18.75
2022-11-24T12:20:46.975Z,15.07
2022-11-24T12:25:57.708Z,19.92
2022-11-24T12:31:08.225Z,21.08
2022-11-24T12:36:16.365Z,24.00
2022-11-24T12:41:45.741Z,21.42
2022-11-24T12:46:56.804Z,19.33
2022-11-24T12:52:03.201Z,18.35
2022-11-24T12:57:12.838Z,25.20
2022-11-24T13:02:24.367Z,25.25
2022-11-24T13:07:39.577Z,26.63
2022-11-24T13:12:54.810Z,23.52
2022-11-24T13:18:08.545Z,22.17
2022-11-24T13:23:25.526Z,14.77
2022-11-24T13:29:13.318Z,18.38
2022-11-24T13:34:56.903Z,18.95
2022-11-24T13:40:00.701Z,17.15
2022-11-24T13:45:05.810Z,20.38
2022-11-24T13:50:23.546Z,22.52
2022-11-24T13:55:33.116Z,19.48
2022-11-24T14:00:58.392Z,11.13
2022-11-24T14:06:02.156Z,17.77
2022-11-24T14:11:13.132Z,16.85
2022-11-24T14:16:18.720Z,18.27
2022-11-24T14:21:25.130Z,17.17
2022-11-24T14:26:33.308Z,13.10
2022-11-24T14:31:37.074Z,22.65
2022-11-24T14:36:39.829Z,26.33
2022-11-24T14:41:44.052Z,21.05
2022-11-24T14:46:48.024Z,16.90
2022-11-24T14:51:55.794Z,11.32
2022-11-24T14:57:00.462Z,15.82
2022-11-24T15:02:38.145Z,23.48
2022-11-24T15:07:43.650Z,15.98
2022-11-24T15:12:52.363Z,15.55
2022-11-24T15:17:57.156Z,20.88
2022-11-24T15:30:58.337Z,18.13
2022-11-24T15:36:01.868Z,17.63
2022-11-24T15:41:17.328Z,18.13
2022-11-24T15:46:19.364Z,17.02
2022-11-24T15:51:25.988Z,20.45
2022-11-24T15:56:30.740Z,18.35
2022-11-24T16:01:34.271Z,24.88
2022-11-24T16:06:37.877Z,19.42
2022-11-24T16:11:39.807Z,19.08
2022-11-24T16:16:41.912Z,19.17
2022-11-24T16:21:47.205Z,20.80
2022-11-24T16:26:49.291Z,19.55
2022-11-24T16:31:51.956Z,19.48
2022-11-24T16:36:55.362Z,13.07
2022-11-24T16:41:57.307Z,22.10
2022-11-24T16:46:59.279Z,18.15
2022-11-24T16:52:02.612Z,23.63
2022-11-24T16:57:04.590Z,24.92
2022-11-24T17:02:07.044Z,20.20
2022-11-24T17:07:10.686Z,21.15
2022-11-24T17:12:12.745Z,21.90
2022-11-24T17:17:14.680Z,18.63
2022-11-24T17:22:18.010Z,18.20
2022-11-24T17:27:19.982Z,22.92
2022-11-24T17:32:22.400Z,20.23
2022-11-24T17:37:25.705Z,19.60
2022-11-24T17:42:27.670Z,17.95
2022-11-24T17:47:30.195Z,16.88
2022-11-24T17:52:33.527Z,15.45
2022-11-24T17:57:35.506Z,15.63
2022-11-24T18:02:37.953Z,20.08
2022-11-24T18:07:41.483Z,12.65
2022-11-24T18:12:43.659Z,9.98
2022-11-24T18:17:45.640Z,7.00
2022-11-24T18:23:05.233Z,9.00
2022-11-24T18:28:08.211Z,8.82
2022-11-24T18:33:10.187Z,7.60
2022-11-24T18:38:13.541Z,6.78
2022-11-24T18:43:15.500Z,6.55
2022-11-24T18:48:17.480Z,7.05
2022-11-24T18:53:22.212Z,9.15
2022-11-24T18:58:25.053Z,9.13
2022-11-24T19:03:27.044Z,11.15
2022-11-24T19:08:30.438Z,11.18
2022-11-24T19:13:32.615Z,12.77
2022-11-24T19:18:34.573Z,3.38
2022-11-24T19:23:37.997Z,3.95
2022-11-24T19:28:39.984Z,4.45
2022-11-24T19:33:42.292Z,4.45
2022-11-24T19:38:52.457Z,8.40
2022-11-24T19:43:54.973Z,5.50
2022-11-24T19:48:59.975Z,5.65
2022-11-24T19:54:04.951Z,5.28
2022-11-24T19:59:07.016Z,2.03
2022-11-24T20:04:11.512Z,4.15
2022-11-24T20:09:16.376Z,2.17
2022-11-24T20:14:19.370Z,2.75
2022-11-24T20:19:21.417Z,2.88
2022-11-24T20:24:24.985Z,2.25
2022-11-24T20:29:29.089Z,2.80
2022-11-24T20:34:31.133Z,3.85
2022-11-24T20:39:34.487Z,2.13
2022-11-24T20:44:36.817Z,3.15
2022-11-24T20:49:39.016Z,3.35
2022-11-24T20:54:42.308Z,2.45
2022-11-24T20:59:44.268Z,2.25
2022-11-24T21:04:46.510Z,2.42
2022-11-24T21:09:49.804Z,2.65
2022-11-24T21:14:51.803Z,2.10
2022-11-24T21:19:59.596Z,2.85
2022-11-24T21:25:04.656Z,3.03
2022-11-24T21:30:07.906Z,2.88
2022-11-24T21:35:10.169Z,4.47
2022-11-24T21:40:14.992Z,4.68
2022-11-24T21:45:16.974Z,3.63
2022-11-24T21:50:18.943Z,3.40
2022-11-24T21:55:22.235Z,4.00
2022-11-24T22:00:24.644Z,3.55
2022-11-24T22:05:26.569Z,3.97
2022-11-24T22:10:29.858Z,4.82
2022-11-24T22:15:31.848Z,4.70
2022-11-24T22:20:33.993Z,7.43
2022-11-24T22:25:37.472Z,13.48
2022-11-24T22:30:39.393Z,6.30
2022-11-24T22:35:41.324Z,8.27
2022-11-24T22:40:44.603Z,8.98
2022-11-24T22:45:46.776Z,9.40
2022-11-24T22:50:48.740Z,11.55
2022-11-24T22:55:52.003Z,12.27
2022-11-24T23:00:54.653Z,11.60
2022-11-24T23:05:59.105Z,9.05
2022-11-24T23:11:04.424Z,11.57
2022-11-24T23:16:08.582Z,8.43
2022-11-24T23:21:12.212Z,9.48
2022-11-24T23:26:17.311Z,9.60
2022-11-24T23:31:21.499Z,8.73
2022-11-24T23:36:23.582Z,9.18
2022-11-24T23:41:26.852Z,10.32
2022-11-24T23:46:29.192Z,9.13
2022-11-24T23:51:32.657Z,9.88
2022-11-24T23:56:36.055Z,7.18
